Terminal Aerodrome Forecast
Issued by NWS Louisville, KY

Home | Current Version | Previous Version | Text Only | Print | Product List | Glossary On
Versions: 1 2 3 4 5 6 7 8 9 10 11 12 13 14 15 16 17 18 19
000
FTUS43 KLMK 230520
TAFBWG
TAF
KBWG 230520Z 2306/2406 18007KT P6SM BKN040
     FM230900 20006KT 6SM BR BKN015
      TEMPO 2311/2315 3SM BR BKN007
     FM231900 18008KT P6SM SCT025 BKN035=

USA.gov is the U.S. government's official web portal to all federal, state and local government web resources and services.